Grayling, Alaska
Current Conditions -  °F | °C
As of 1:36 AM on Thursday 23 Oct 2014 (Local Time) from PANV Reporting Station
Clear Clear  
Wind Chill: 15°   Ceiling: Unl
Heat Index: 21°   Visibility: 10mi
Dew Point: 18°   Wind: 5mph
Humidity: 86%   Direction: 240°WSW
Pressure: 29.86"   Gusts: NA
Location:  62.92°N, 160.07°W
Report Text: PANV 230936Z AUTO 24004KT 10SM CLR M06/M08 A2986 RMK AO1
Loading
Personal Weather Stations






























Interactive Weather Map
Tropical Storm Tracking
New forecast layout! Learn more

10-Day Weather Forecast

Advertisements
Track Severe Weather on mobile